createdAt,value
2018-04-28T00:02:05.945Z,15.36
2018-04-28T00:04:34.840Z,15.41
2018-04-28T00:07:03.464Z,15.41
2018-04-28T00:09:32.397Z,15.44
2018-04-28T00:12:01.009Z,15.38
2018-04-28T00:14:29.881Z,15.42
2018-04-28T00:17:10.730Z,15.47
2018-04-28T00:19:40.921Z,15.46
2018-04-28T00:22:24.374Z,15.34
2018-04-28T00:24:58.481Z,15.39
2018-04-28T00:27:33.079Z,15.35
2018-04-28T00:33:23.327Z,15.28
2018-04-28T00:36:01.074Z,15.24
2018-04-28T00:38:29.944Z,15.19
2018-04-28T00:40:58.809Z,15.03
2018-04-28T00:43:32.764Z,15.07
2018-04-28T00:46:04.209Z,14.91
2018-04-28T00:51:39.209Z,14.74
2018-04-28T00:54:10.627Z,14.60
2018-04-28T00:56:39.500Z,14.54
2018-04-28T00:59:23.305Z,14.57
2018-04-28T01:01:53.139Z,14.58
2018-04-28T01:04:46.885Z,14.49
2018-04-28T01:07:27.372Z,14.43
2018-04-28T01:10:07.984Z,14.39
2018-04-28T01:12:39.667Z,14.33
2018-04-28T01:15:16.862Z,14.24
2018-04-28T01:17:54.830Z,14.22
2018-04-28T01:20:33.140Z,14.16
2018-04-28T01:23:08.368Z,14.05
2018-04-28T01:25:41.379Z,14.04
2018-04-28T01:28:21.476Z,14.01
2018-04-28T01:38:07.655Z,13.87
2018-04-28T01:40:38.715Z,13.90
2018-04-28T01:43:40.862Z,13.90
2018-04-28T01:52:08.226Z,13.83
2018-04-28T01:54:50.744Z,13.74
2018-04-28T01:57:24.832Z,13.74
2018-04-28T02:03:14.846Z,13.60
2018-04-28T02:08:54.056Z,13.65
2018-04-28T02:11:25.566Z,13.71
2018-04-28T02:13:57.120Z,13.78
2018-04-28T02:16:37.660Z,13.69
2018-04-28T02:19:09.707Z,13.70
2018-04-28T02:21:58.484Z,13.61
2018-04-28T02:31:14.834Z,13.42
2018-04-28T02:33:47.640Z,13.28
2018-04-28T02:36:31.230Z,13.31
2018-04-28T02:39:01.357Z,13.30
2018-04-28T02:44:31.489Z,13.18
2018-04-28T02:47:20.733Z,13.29
2018-04-28T02:53:12.009Z,13.19
2018-04-28T02:58:55.228Z,13.13
2018-04-28T03:01:29.454Z,13.08
2018-04-28T03:04:03.136Z,13.04
2018-04-28T03:06:52.165Z,13.02
2018-04-28T03:09:23.323Z,12.98
2018-04-28T03:12:10.348Z,13.05
2018-04-28T03:14:47.334Z,12.94
2018-04-28T03:17:24.546Z,12.88
2018-04-28T03:20:03.360Z,12.87
2018-04-28T03:22:32.005Z,12.80
2018-04-28T03:25:10.809Z,12.76
2018-04-28T03:31:08.554Z,12.75
2018-04-28T03:37:16.524Z,12.79
2018-04-28T03:39:51.654Z,12.82
2018-04-28T03:45:59.009Z,12.87
2018-04-28T03:48:41.078Z,12.96
2018-04-28T04:05:07.836Z,12.89
2018-04-28T04:07:46.266Z,12.96
2018-04-28T04:14:16.142Z,12.95
2018-04-28T04:16:47.392Z,12.92
2018-04-28T04:22:47.930Z,12.98
2018-04-28T04:25:24.767Z,13.04
2018-04-28T04:28:03.654Z,13.09
2018-04-28T04:30:42.082Z,13.26
2018-04-28T04:36:54.170Z,13.22
2018-04-28T04:42:56.552Z,13.27
2018-04-28T04:45:34.891Z,13.25
2018-04-28T04:52:13.958Z,13.29
2018-04-28T04:58:14.202Z,13.27
2018-04-28T05:03:55.113Z,13.35
2018-04-28T05:10:00.283Z,13.38
2018-04-28T05:15:33.483Z,13.33
2018-04-28T05:18:19.923Z,13.50
2018-04-28T05:20:57.327Z,13.35
2018-04-28T05:23:39.622Z,13.38
2018-04-28T05:26:21.107Z,13.35
2018-04-28T05:32:34.378Z,13.57
2018-04-28T05:35:15.650Z,13.68
2018-04-28T05:37:56.568Z,13.88
2018-04-28T05:40:45.822Z,14.51
2018-04-28T05:43:24.201Z,15.87
2018-04-28T05:49:33.340Z,16.65
2018-04-28T05:55:38.231Z,15.58
2018-04-28T05:58:35.485Z,15.34
2018-04-28T06:01:14.722Z,15.14
2018-04-28T06:04:01.241Z,14.98
2018-04-28T06:06:58.358Z,15.02
2018-04-28T06:23:20.661Z,14.91
2018-04-28T06:25:49.552Z,15.04
2018-04-28T06:28:18.191Z,15.67
2018-04-28T06:30:47.245Z,16.42
2018-04-28T06:33:16.568Z,16.38
2018-04-28T06:35:45.507Z,15.77
2018-04-28T06:38:14.936Z,15.49
2018-04-28T06:40:44.246Z,15.65
2018-04-28T06:43:14.245Z,16.27
2018-04-28T06:45:43.148Z,16.72
2018-04-28T06:48:12.419Z,17.41
2018-04-28T06:50:41.974Z,17.79
2018-04-28T06:53:11.496Z,18.02
2018-04-28T06:55:40.339Z,18.59
2018-04-28T06:58:10.951Z,18.90
2018-04-28T07:00:40.245Z,19.11
2018-04-28T07:03:09.196Z,19.61
2018-04-28T07:05:38.399Z,19.88
2018-04-28T07:08:07.279Z,19.79
2018-04-28T07:10:36.195Z,20.15
2018-04-28T07:13:05.067Z,20.42
2018-04-28T07:15:33.944Z,20.53
2018-04-28T07:18:03.210Z,20.58
2018-04-28T07:21:25.813Z,20.95
2018-04-28T07:23:54.685Z,21.00
2018-04-28T07:26:24.059Z,20.76
2018-04-28T07:28:52.931Z,20.37
2018-04-28T07:31:21.823Z,20.64
2018-04-28T07:38:22.943Z,20.53
2018-04-28T07:40:52.252Z,20.50
2018-04-28T07:43:21.451Z,20.14
2018-04-28T07:45:50.743Z,20.40
2018-04-28T07:48:20.055Z,20.52
2018-04-28T07:50:48.965Z,20.86
2018-04-28T07:53:18.177Z,20.96
2018-04-28T07:55:47.708Z,20.70
2018-04-28T07:58:17.066Z,20.30
2018-04-28T08:00:46.608Z,20.25
2018-04-28T08:03:15.508Z,20.17
2018-04-28T08:05:44.404Z,20.42
2018-04-28T08:08:13.982Z,20.50
2018-04-28T08:10:42.904Z,21.00
2018-04-28T08:13:12.149Z,21.31
2018-04-28T08:15:41.942Z,21.12
2018-04-28T08:18:11.686Z,21.37
2018-04-28T08:20:41.200Z,21.23
2018-04-28T08:23:11.125Z,20.52
2018-04-28T08:25:40.020Z,21.06
2018-04-28T08:28:09.664Z,20.42
2018-04-28T08:30:38.978Z,20.52
2018-04-28T08:33:08.349Z,20.34
2018-04-28T08:35:37.277Z,19.51
2018-04-28T08:38:06.553Z,19.42
2018-04-28T08:40:35.448Z,19.43
2018-04-28T08:43:04.688Z,19.76
2018-04-28T08:45:33.611Z,19.64
2018-04-28T08:48:02.426Z,19.45
2018-04-28T08:50:32.045Z,19.02
2018-04-28T08:53:01.440Z,19.01
2018-04-28T08:55:31.063Z,18.55
2018-04-28T08:58:00.172Z,18.82
2018-04-28T09:00:32.531Z,19.12
2018-04-28T09:03:02.611Z,18.81
2018-04-28T09:05:32.175Z,19.35
2018-04-28T09:08:01.701Z,19.66
2018-04-28T09:10:31.260Z,20.47
2018-04-28T09:13:00.813Z,20.16
2018-04-28T09:15:30.928Z,19.87
2018-04-28T09:18:00.477Z,19.97
2018-04-28T09:20:30.056Z,20.41
2018-04-28T09:22:59.576Z,20.83
2018-04-28T09:25:29.129Z,20.50
2018-04-28T09:27:58.668Z,20.96
2018-04-28T09:30:28.221Z,21.22
2018-04-28T09:32:57.793Z,20.29
2018-04-28T09:35:27.459Z,20.01
2018-04-28T09:37:56.980Z,20.78
2018-04-28T09:40:26.490Z,20.56
2018-04-28T09:42:56.076Z,20.68
2018-04-28T09:45:25.642Z,20.18
2018-04-28T09:47:55.400Z,19.84
2018-04-28T09:50:25.210Z,20.68
2018-04-28T09:52:55.146Z,20.75
2018-04-28T09:55:24.930Z,20.25
2018-04-28T09:58:09.336Z,19.54
2018-04-28T10:00:57.442Z,20.27
2018-04-28T10:03:30.800Z,21.02
2018-04-28T10:06:00.420Z,20.70
2018-04-28T10:08:30.950Z,20.31
2018-04-28T10:11:01.571Z,20.92
2018-04-28T10:13:31.248Z,20.93
2018-04-28T10:16:01.376Z,21.31
2018-04-28T10:18:31.900Z,21.42
2018-04-28T10:21:02.676Z,21.06
2018-04-28T10:23:32.624Z,21.19
2018-04-28T10:26:03.036Z,21.59
2018-04-28T10:28:33.152Z,21.49
2018-04-28T10:31:03.388Z,20.96
2018-04-28T10:33:33.500Z,20.55
2018-04-28T10:36:03.112Z,20.15
2018-04-28T10:38:33.056Z,20.05
2018-04-28T10:41:02.648Z,20.35
2018-04-28T10:43:32.209Z,20.95
2018-04-28T10:46:02.228Z,21.23
2018-04-28T10:48:32.360Z,21.43
2018-04-28T10:51:02.468Z,21.08
2018-04-28T10:53:32.258Z,21.04
2018-04-28T10:56:01.966Z,20.27
2018-04-28T10:58:31.830Z,20.31
2018-04-28T11:01:01.768Z,20.93
2018-04-28T11:03:31.298Z,21.55
2018-04-28T11:06:02.112Z,21.52
2018-04-28T11:08:32.217Z,21.73
2018-04-28T11:11:02.381Z,22.12
2018-04-28T11:13:33.103Z,22.43
2018-04-28T11:16:03.207Z,22.44
2018-04-28T11:18:34.165Z,21.97
2018-04-28T11:21:04.428Z,21.32
2018-04-28T11:23:34.520Z,21.25
2018-04-28T11:26:04.688Z,21.56
2018-04-28T11:28:34.590Z,20.95
2018-04-28T11:31:04.687Z,21.45
2018-04-28T11:33:34.793Z,22.08
2018-04-28T11:36:04.868Z,22.29
2018-04-28T11:38:35.105Z,22.90
2018-04-28T11:41:05.323Z,22.10
2018-04-28T11:43:35.433Z,22.19
2018-04-28T11:46:05.695Z,22.28
2018-04-28T11:48:36.171Z,21.60
2018-04-28T11:51:06.295Z,20.80
2018-04-28T11:53:35.997Z,20.50
2018-04-28T11:56:06.079Z,20.85
2018-04-28T11:58:35.615Z,20.53
2018-04-28T12:01:05.541Z,20.81
2018-04-28T12:03:35.556Z,20.99
2018-04-28T12:06:05.392Z,21.13
2018-04-28T12:08:37.439Z,21.34
2018-04-28T12:11:07.553Z,21.51
2018-04-28T12:13:37.656Z,21.53
2018-04-28T12:16:07.746Z,21.88
2018-04-28T12:18:38.487Z,22.08
2018-04-28T12:21:09.000Z,22.17
2018-04-28T12:23:39.354Z,22.81
2018-04-28T12:26:09.466Z,22.84
2018-04-28T12:28:39.962Z,23.09
2018-04-28T12:31:10.073Z,22.89
2018-04-28T12:33:40.327Z,21.73
2018-04-28T12:36:10.836Z,21.78
2018-04-28T12:38:40.917Z,21.67
2018-04-28T12:41:11.002Z,22.49
2018-04-28T12:43:41.482Z,22.97
2018-04-28T12:46:11.491Z,22.66
2018-04-28T12:48:41.574Z,21.85
2018-04-28T12:51:12.191Z,21.77
2018-04-28T12:53:42.006Z,21.21
2018-04-28T12:56:12.482Z,21.49
2018-04-28T12:58:42.552Z,21.53
2018-04-28T13:01:13.112Z,21.95
2018-04-28T13:03:43.261Z,22.28
2018-04-28T13:06:13.507Z,22.34
2018-04-28T13:08:43.434Z,22.01
2018-04-28T13:11:13.540Z,21.51
2018-04-28T13:13:43.612Z,21.53
2018-04-28T13:16:13.694Z,21.39
2018-04-28T13:18:43.790Z,21.60
2018-04-28T13:21:14.157Z,21.94
2018-04-28T13:23:44.686Z,22.25
2018-04-28T13:26:15.004Z,22.99
2018-04-28T13:28:45.492Z,23.10
2018-04-28T13:31:15.578Z,22.95
2018-04-28T13:33:45.669Z,22.70
2018-04-28T13:36:16.138Z,22.48
2018-04-28T13:38:46.460Z,22.22
2018-04-28T13:41:16.612Z,21.91
2018-04-28T13:43:46.701Z,21.85
2018-04-28T13:46:16.830Z,21.87
2018-04-28T13:48:46.914Z,21.50
2018-04-28T13:51:17.405Z,21.65
2018-04-28T13:53:47.480Z,21.97
2018-04-28T13:56:17.608Z,21.97
2018-04-28T13:58:47.691Z,21.97
2018-04-28T14:01:18.187Z,21.77
2018-04-28T14:03:47.938Z,21.88
2018-04-28T14:06:17.821Z,21.73
2018-04-28T14:08:47.668Z,21.57
2018-04-28T14:11:17.766Z,21.30
2018-04-28T14:13:47.884Z,21.52
2018-04-28T14:16:17.977Z,22.02
2018-04-28T14:18:48.137Z,22.36
2018-04-28T14:21:18.657Z,21.74
2018-04-28T14:23:48.781Z,22.10
2018-04-28T14:26:18.889Z,22.32
2018-04-28T14:28:49.215Z,21.68
2018-04-28T14:31:19.303Z,21.49
2018-04-28T14:33:49.410Z,21.56
2018-04-28T14:36:19.508Z,21.78
2018-04-28T14:38:49.955Z,21.68
2018-04-28T14:41:20.051Z,21.57
2018-04-28T14:43:50.332Z,21.53
2018-04-28T14:46:20.443Z,21.49
2018-04-28T14:48:50.561Z,21.40
2018-04-28T14:51:20.999Z,21.60
2018-04-28T14:53:51.113Z,21.75
2018-04-28T14:56:21.429Z,22.03
2018-04-28T14:58:51.566Z,22.36
2018-04-28T15:01:21.399Z,22.55
2018-04-28T15:03:51.379Z,22.42
2018-04-28T15:06:21.448Z,22.45
2018-04-28T15:08:51.913Z,22.54
2018-04-28T15:11:22.042Z,22.64
2018-04-28T15:13:52.129Z,22.21
2018-04-28T15:16:22.228Z,22.33
2018-04-28T15:18:53.007Z,22.25
2018-04-28T15:21:23.123Z,22.29
2018-04-28T15:23:53.577Z,22.29
2018-04-28T15:26:23.973Z,22.30
2018-04-28T15:28:54.331Z,22.37
2018-04-28T15:31:24.724Z,22.52
2018-04-28T15:33:54.912Z,22.41
2018-04-28T15:36:25.611Z,22.52
2018-04-28T15:38:55.794Z,22.60
2018-04-28T15:41:25.957Z,22.65
2018-04-28T15:43:56.107Z,22.67
2018-04-28T15:46:26.704Z,22.68
2018-04-28T15:48:56.993Z,22.56
2018-04-28T15:51:27.125Z,22.47
2018-04-28T15:53:57.195Z,22.45
2018-04-28T15:56:27.771Z,22.35
2018-04-28T15:58:57.861Z,22.29
2018-04-28T16:01:27.989Z,22.30
2018-04-28T16:03:58.075Z,22.27
2018-04-28T16:06:28.869Z,22.24
2018-04-28T16:08:58.954Z,22.20
2018-04-28T16:11:29.037Z,22.10
2018-04-28T16:13:59.171Z,21.87
2018-04-28T16:16:29.267Z,21.92
2018-04-28T16:18:59.356Z,22.00
2018-04-28T16:21:29.523Z,22.08
2018-04-28T16:23:59.608Z,22.18
2018-04-28T16:26:29.680Z,22.14
2018-04-28T16:29:00.151Z,22.09
2018-04-28T16:31:30.287Z,22.16
2018-04-28T16:34:00.366Z,22.11
2018-04-28T16:36:30.439Z,22.00
2018-04-28T16:39:00.513Z,22.17
2018-04-28T16:41:30.599Z,22.20
2018-04-28T16:44:01.118Z,22.01
2018-04-28T16:46:31.199Z,22.00
2018-04-28T16:49:01.301Z,22.06
2018-04-28T16:51:31.381Z,22.09
2018-04-28T16:54:01.303Z,22.10
2018-04-28T16:56:31.490Z,22.00
2018-04-28T16:59:01.783Z,21.95
2018-04-28T17:01:32.054Z,21.84
2018-04-28T17:04:02.186Z,21.81
2018-04-28T17:06:32.363Z,21.72
2018-04-28T17:09:02.819Z,21.68
2018-04-28T17:11:32.891Z,21.74
2018-04-28T17:14:03.046Z,21.79
2018-04-28T17:16:33.184Z,21.92
2018-04-28T17:19:03.318Z,21.98
2018-04-28T17:21:33.419Z,21.94
2018-04-28T17:24:03.495Z,22.06
2018-04-28T17:26:33.643Z,21.99
2018-04-28T17:29:03.460Z,22.08
2018-04-28T17:31:33.615Z,21.98
2018-04-28T17:34:03.700Z,21.87
2018-04-28T17:36:33.777Z,21.76
2018-04-28T17:39:03.682Z,21.78
2018-04-28T17:41:34.459Z,21.74
2018-04-28T17:44:04.609Z,21.70
2018-04-28T17:46:34.743Z,21.58
2018-04-28T17:49:05.231Z,21.46
2018-04-28T17:51:35.303Z,21.29
2018-04-28T17:54:05.832Z,21.13
2018-04-28T17:56:35.925Z,21.10
2018-04-28T17:59:06.027Z,20.91
2018-04-28T18:01:36.128Z,20.77
2018-04-28T18:04:05.884Z,20.66
2018-04-28T18:06:36.434Z,20.62
2018-04-28T18:09:06.609Z,20.49
2018-04-28T18:11:36.695Z,20.48
2018-04-28T18:14:06.808Z,20.39
2018-04-28T18:16:36.893Z,20.34
2018-04-28T18:19:06.987Z,20.23
2018-04-28T18:21:37.219Z,20.27
2018-04-28T18:24:07.315Z,20.29
2018-04-28T18:26:37.537Z,20.12
2018-04-28T18:29:07.624Z,20.04
2018-04-28T18:31:37.218Z,20.08
2018-04-28T18:34:07.719Z,20.05
2018-04-28T18:36:37.247Z,19.98
2018-04-28T18:39:07.404Z,19.91
2018-04-28T18:41:37.531Z,19.86
2018-04-28T18:44:08.158Z,19.85
2018-04-28T18:46:38.501Z,19.75
2018-04-28T18:49:08.769Z,19.67
2018-04-28T18:51:40.555Z,19.66
2018-04-28T18:54:10.721Z,19.56
2018-04-28T18:56:40.098Z,19.51
2018-04-28T18:59:10.254Z,19.44
2018-04-28T19:01:40.399Z,19.39
2018-04-28T19:04:10.913Z,19.34
2018-04-28T19:06:41.332Z,19.30
2018-04-28T19:09:10.630Z,19.26
2018-04-28T19:11:40.264Z,19.33
2018-04-28T19:14:10.551Z,19.35
2018-04-28T19:16:42.098Z,19.29
2018-04-28T19:19:11.731Z,19.27
2018-04-28T19:21:41.306Z,19.25
2018-04-28T19:24:11.231Z,19.23
2018-04-28T19:26:40.809Z,19.31
2018-04-28T19:29:10.765Z,19.26
2018-04-28T19:31:40.303Z,19.33
2018-04-28T19:34:09.506Z,19.23
2018-04-28T19:36:39.077Z,19.19
2018-04-28T19:39:08.615Z,19.19
2018-04-28T19:41:38.655Z,19.17
2018-04-28T19:44:09.146Z,19.00
2018-04-28T19:46:38.749Z,18.87
2018-04-28T19:49:08.520Z,18.77
2018-04-28T19:51:38.230Z,18.69
2018-04-28T19:54:08.184Z,18.66
2018-04-28T19:56:38.531Z,18.73
2018-04-28T19:59:08.144Z,18.78
2018-04-28T20:01:37.686Z,18.81
2018-04-28T20:04:07.635Z,18.71
2018-04-28T20:06:37.162Z,18.63
2018-04-28T20:09:07.286Z,18.48
2018-04-28T20:11:36.911Z,18.49
2018-04-28T20:14:06.491Z,18.28
2018-04-28T20:16:36.042Z,18.28
2018-04-28T20:19:06.008Z,18.24
2018-04-28T20:21:35.845Z,18.19
2018-04-28T20:24:22.921Z,18.21
2018-04-28T20:26:53.066Z,18.16
2018-04-28T20:29:22.673Z,18.17
2018-04-28T20:31:52.286Z,18.21
2018-04-28T20:34:21.882Z,18.18
2018-04-28T20:36:51.785Z,18.11
2018-04-28T20:39:21.332Z,18.11
2018-04-28T20:41:50.885Z,18.05
2018-04-28T20:44:20.416Z,17.97
2018-04-28T20:46:50.021Z,17.94
2018-04-28T20:49:19.906Z,17.97
2018-04-28T20:51:49.490Z,17.93
2018-04-28T20:54:19.046Z,17.80
2018-04-28T20:56:48.786Z,17.85
2018-04-28T20:59:18.364Z,17.78
2018-04-28T21:01:48.174Z,17.78
2018-04-28T21:04:17.705Z,17.71
2018-04-28T21:06:47.284Z,17.62
2018-04-28T21:09:17.719Z,17.64
2018-04-28T21:11:47.237Z,17.58
2018-04-28T21:14:17.017Z,17.51
2018-04-28T21:16:46.576Z,17.50
2018-04-28T21:19:16.306Z,17.48
2018-04-28T21:21:47.066Z,17.44
2018-04-28T21:24:17.726Z,17.47
2018-04-28T21:26:47.254Z,17.34
2018-04-28T21:29:16.844Z,17.28
2018-04-28T21:31:46.416Z,17.26
2018-04-28T21:34:16.469Z,17.24
2018-04-28T21:36:47.024Z,17.24
2018-04-28T21:39:16.537Z,17.28
2018-04-28T21:41:46.079Z,17.25
2018-04-28T21:44:15.640Z,17.21
2018-04-28T21:46:45.764Z,17.20
2018-04-28T21:49:16.034Z,17.18
2018-04-28T21:51:45.578Z,17.08
2018-04-28T21:54:15.171Z,17.01
2018-04-28T21:56:45.047Z,16.93
2018-04-28T21:59:14.972Z,16.96
2018-04-28T22:01:45.797Z,16.95
2018-04-28T22:04:15.332Z,16.94
2018-04-28T22:06:44.948Z,16.89
2018-04-28T22:09:14.506Z,16.83
2018-04-28T22:11:44.480Z,16.81
2018-04-28T22:14:14.006Z,16.75
2018-04-28T22:16:43.550Z,16.67
2018-04-28T22:19:13.480Z,16.64
2018-04-28T22:21:43.492Z,16.60
2018-04-28T22:24:13.476Z,16.62
2018-04-28T22:26:43.309Z,16.60
2018-04-28T22:29:13.256Z,16.53
2018-04-28T22:31:42.792Z,16.45
2018-04-28T22:34:12.444Z,16.39
2018-04-28T22:36:42.408Z,16.32
2018-04-28T22:39:12.100Z,16.21
2018-04-28T22:41:41.824Z,16.11
2018-04-28T22:44:11.704Z,15.98
2018-04-28T22:46:41.654Z,16.02
2018-04-28T22:49:11.190Z,15.98
2018-04-28T22:51:40.705Z,16.10
2018-04-28T22:54:10.222Z,16.01
2018-04-28T22:56:39.984Z,15.97
2018-04-28T22:59:09.595Z,15.85
2018-04-28T23:01:39.316Z,15.82
2018-04-28T23:04:08.982Z,15.78
2018-04-28T23:06:38.992Z,15.94
2018-04-28T23:09:08.935Z,15.87
2018-04-28T23:11:38.681Z,15.87
2018-04-28T23:14:08.221Z,15.71
2018-04-28T23:16:38.418Z,15.66
2018-04-28T23:19:08.003Z,15.62
2018-04-28T23:21:37.573Z,15.54
2018-04-28T23:24:07.120Z,15.57
2018-04-28T23:26:36.672Z,15.49
2018-04-28T23:29:06.630Z,15.41
2018-04-28T23:32:24.592Z,15.42
2018-04-28T23:34:54.138Z,15.37
2018-04-28T23:37:24.118Z,15.27
2018-04-28T23:39:53.674Z,15.23
2018-04-28T23:42:23.868Z,15.30
2018-04-28T23:44:53.850Z,15.28
2018-04-28T23:47:23.370Z,15.23
2018-04-28T23:49:52.894Z,15.30
2018-04-28T23:52:22.680Z,15.15
2018-04-28T23:54:52.076Z,15.12
2018-04-28T23:57:21.596Z,14.89
2018-04-28T23:59:51.129Z,14.87
